Latest Weather Observations for Wadeye (Port Keats)

IDD60801

Issued at 3:31 pm CST Wednesday 19 December 2018 (issued every 10 minutes, with the page automatically refreshed every 10 minutes)

About weather observations | Map of weather stations | Latest weather observations for NT | Other Formats
Station Details ID: 014948 Name: PORT KEATS AIRPORT Lat: -14.25 Lon: 129.53 Height: 28.0 m
Data from the previous 72 hours. | See also: Recent months at Wadeye (Port Keats)
Date/Time
CST
Temp
°C
App
Temp
°C
Dew
Point
°C
Rel
Hum
%
Delta-T
°C
Wind Press
QNH
hPa
Press
MSL
hPa
Rain since
9am
mm
Dir  Spd
km/h
Gust
km/h
Spd
kts
Gust
kts
19/03:30pm 32.3 35.7 24.1 62 5.7 WNW 13 20 7 11 1005.7 1005.4 0.0
19/03:00pm 33.4 36.8 24.0 58 6.6 W 13 20 7 11 1005.9 1005.6 0.0
19/02:30pm 33.2 35.7 23.8 57 6.6 WNW 17 33 9 18 1006.3 1006.1 0.0
19/02:00pm 33.3 36.2 23.9 58 6.6 WNW 15 24 8 13 1006.5 1006.3 0.0
19/01:30pm 32.2 34.6 22.9 58 6.4 W 15 22 8 12 1007.0 1006.8 0.0
19/01:00pm 32.8 35.2 22.3 54 7.2 W 13 20 7 11 1007.2 1007.0 0.0
19/12:30pm 33.1 36.0 22.5 53 7.3 WSW 11 20 6 11 1007.4 1007.2 0.0
19/12:00pm 32.6 35.8 22.4 55 7.0 WNW 9 15 5 8 1007.9 1007.7 0.0
19/11:30am 32.0 36.1 23.3 60 6.0 W 7 11 4 6 1008.2 1008.0 0.0
19/11:00am 31.3 36.0 23.4 63 5.5 SW 4 9 2 5 1008.3 1008.1 0.0
19/10:30am 30.1 34.5 23.5 67 4.6 W 6 11 3 6 1008.2 1008.0 0.0
19/10:00am 29.3 33.1 24.0 73 3.7 W 11 15 6 8 1008.2 1008.0 0.0
19/09:30am 28.6 32.7 23.3 73 3.6 N 7 11 4 6 1008.7 1008.5 0.0
19/09:00am 27.9 32.3 23.5 77 3.0 E 6 9 3 5 1009.3 1009.1 0.0
19/08:30am 27.2 31.4 23.2 79 2.7 SW 6 11 3 6 1008.7 1008.5 0.0
19/08:00am 27.0 31.0 22.8 78 2.9 SSW 6 9 3 5 1009.1 1008.9 0.0
19/07:30am 27.0 30.7 22.6 77 3.0 ESE 7 9 4 5 1009.4 1009.2 0.0
19/07:00am 27.0 30.8 22.8 78 2.9 ENE 7 11 4 6 1009.2 1009.0 0.0
19/06:30am 27.1 31.7 22.5 76 3.1 N 2 6 1 3 1008.9 1008.7 0.0
19/06:00am 26.8 30.6 22.4 77 3.0 W 6 9 3 5 1008.8 1008.6 0.0
19/05:30am 26.9 30.3 22.7 78 2.9 WNW 9 15 5 8 1008.0 1007.8 0.0
19/05:00am 26.9 30.3 22.7 78 2.8 W 9 13 5 7 1008.2 1008.0 0.0
19/04:30am 26.5 30.6 23.0 81 2.4 W 6 11 3 6 1008.1 1007.9 0.0
19/04:00am 25.9 29.7 22.4 81 2.4 SW 6 9 3 5 1008.0 1007.8 0.0
19/03:30am 25.7 28.8 22.2 81 2.4 WNW 9 13 5 7 1007.1 1006.9 0.0
19/03:00am 25.4 28.7 21.9 81 2.3 W 7 9 4 5 1007.5 1007.3 0.0
19/02:30am 25.6 28.5 21.7 79 2.6 NNW 9 11 5 6 1007.6 1007.4 0.0
19/02:00am 25.5 29.5 21.4 78 2.7 SW 2 7 1 4 1008.1 1007.9 0.0
19/01:30am 25.8 27.8 21.5 77 2.9 N 13 17 7 9 1008.4 1008.2 0.0
19/01:00am 25.9 28.7 21.6 77 2.9 NNE 9 15 5 8 1008.7 1008.5 0.0
19/12:30am 25.8 28.2 21.5 77 2.9 ENE 11 17 6 9 1009.6 1009.4 0.0
19/12:00am 25.9 27.9 21.6 77 2.9 ESE 13 19 7 10 1009.9 1009.7 0.0
 
Date/Time
CST
Temp
°C
App
Temp
°C
Dew
Point
°C
Rel
Hum
%
Delta-T
°C
Wind Press
QNH
hPa
Press
MSL
hPa
Rain since
9am
mm
Dir  Spd
km/h
Gust
km/h
Spd
kts
Gust
kts
18/11:30pm 26.4 28.9 21.8 76 3.1 SE 11 17 6 9 1010.5 1010.3 0.0
18/11:00pm 26.8 27.3 22.0 75 3.2 SE 22 33 12 18 1011.4 1011.2 0.0
18/10:30pm 27.6 26.4 21.6 70 4.0 SE 30 43 16 23 1011.6 1011.4 0.0
18/10:24pm 28.2 28.5 22.2 70 4.1 SE 24 43 13 23 1011.5 1011.3 0.0
18/10:00pm 29.4 33.7 24.3 74 3.5 E 9 13 5 7 1010.6 1010.4 0.0
18/09:30pm 29.4 33.5 24.0 72 3.7 NNE 9 13 5 7 1009.8 1009.6 0.0
18/09:00pm 29.5 34.0 23.9 72 3.9 NNE 7 9 4 5 1009.4 1009.2 0.0
18/08:30pm 29.6 34.0 23.8 71 4.0 NNE 7 11 4 6 1009.0 1008.8 0.0
18/08:00pm 29.6 33.2 23.8 71 4.0 N 11 15 6 8 1008.2 1008.0 0.0
18/07:30pm 29.7 32.8 23.6 69 4.2 NNW 13 15 7 8 1006.9 1006.7 0.0
18/07:00pm 29.9 33.8 23.6 69 4.4 NNW 9 15 5 8 1007.3 1007.1 0.0
18/06:30pm 30.0 34.0 23.7 69 4.4 WNW 9 13 5 7 1006.7 1006.5 0.0
18/06:00pm 30.3 32.4 23.7 68 4.6 NNW 19 24 10 13 1005.8 1005.5 0.0
18/05:30pm 30.6 32.9 23.5 66 4.9 NNW 17 26 9 14 1005.7 1005.4 0.0
18/05:00pm 30.9 33.0 23.8 66 4.9 NNW 19 26 10 14 1005.0 1004.7 0.0
18/04:30pm 31.9 34.3 23.7 62 5.7 NNW 17 24 9 13 1005.4 1005.1 0.0
18/04:00pm 31.3 32.6 23.4 63 5.5 NW 22 32 12 17 1005.2 1004.9 0.0
18/03:30pm 32.0 33.8 23.5 60 5.9 NNW 20 30 11 16 1005.3 1005.0 0.0
18/03:00pm 33.1 35.3 24.3 60 6.2 N 20 30 11 16 1005.4 1005.1 0.0
18/02:30pm 32.5 34.7 24.0 61 5.9 NNW 19 28 10 15 1006.0 1005.7 0.0
18/02:00pm 32.5 34.8 23.4 58 6.3 NNW 17 24 9 13 1006.4 1006.2 0.0
18/01:30pm 32.6 34.8 23.3 58 6.5 NNW 17 22 9 12 1006.5 1006.3 0.0
18/01:00pm 32.1 34.7 23.3 59 6.1 NNW 15 26 8 14 1006.9 1006.7 0.0
18/12:30pm 32.3 35.6 23.8 61 5.9 NNW 13 20 7 11 1007.0 1006.8 0.0
18/12:00pm 32.0 35.4 24.1 63 5.5 NW 13 22 7 12 1007.2 1007.0 0.0
18/11:30am 32.4 35.9 24.2 62 5.7 NW 13 20 7 11 1007.3 1007.1 0.0
18/11:00am 32.0 36.3 24.3 63 5.4 NW 9 15 5 8 1007.5 1007.3 0.0
18/10:30am 31.4 34.6 24.3 66 5.0 NNW 15 20 8 11 1007.6 1007.4 0.0
18/10:00am 31.6 35.4 24.7 67 4.8 NW 13 20 7 11 1007.8 1007.6 0.0
18/09:30am 31.2 35.6 25.1 70 4.3 NW 11 17 6 9 1007.9 1007.7 0.0
18/09:00am 30.8 34.4 24.4 68 4.5 NNW 13 17 7 9 1007.8 1007.6 0.0
18/08:30am 29.9 34.0 24.5 73 3.8 NW 11 20 6 11 1007.7 1007.5 0.0
18/08:00am 29.5 33.6 24.6 75 3.4 NW 11 17 6 9 1007.3 1007.1 0.0
18/07:30am 29.0 33.6 24.8 78 2.9 NNW 9 13 5 7 1007.0 1006.8 0.0
18/07:00am 28.4 33.9 24.6 80 2.6 WNW 4 9 2 5 1006.7 1006.5 0.0
18/06:30am 28.2 32.6 24.4 80 2.6 NNW 9 11 5 6 1006.1 1005.9 0.0
18/06:00am 28.2 33.1 24.6 81 2.5 N 7 11 4 6 1005.7 1005.4 0.0
18/05:30am 28.2 32.6 24.4 80 2.6 NNW 9 11 5 6 1005.5 1005.2 0.0
18/05:00am 28.1 32.4 24.3 80 2.6 NW 9 13 5 7 1005.4 1005.1 0.0
18/04:30am 28.3 32.6 24.3 79 2.8 NW 9 13 5 7 1005.1 1004.8 0.0
18/04:00am 28.4 31.9 24.2 78 2.9 NNW 13 17 7 9 1005.0 1004.7 0.0
18/03:30am 28.3 32.1 24.1 78 2.9 NW 11 15 6 8 1005.1 1004.8 0.0
18/03:00am 28.4 31.8 24.0 77 3.1 NW 13 20 7 11 1005.0 1004.7 0.0
18/02:30am 28.5 31.9 24.1 77 3.1 NW 13 20 7 11 1005.1 1004.8 0.0
18/02:00am 28.6 31.9 23.9 75 3.2 NNW 13 17 7 9 1005.5 1005.2 0.0
18/01:30am 28.7 32.1 24.0 76 3.3 NNW 13 19 7 10 1006.0 1005.7 0.0
18/01:00am 28.8 31.9 24.1 76 3.3 NW 15 20 8 11 1006.3 1006.1 0.0
18/12:30am 28.7 31.9 24.3 77 3.1 NW 15 20 8 11 1006.4 1006.2 0.0
18/12:00am 28.9 32.4 24.2 76 3.3 NW 13 20 7 11 1007.1 1006.9 0.0
 
Date/Time
CST
Temp
°C
App
Temp
°C
Dew
Point
°C
Rel
Hum
%
Delta-T
°C
Wind Press
QNH
hPa
Press
MSL
hPa
Rain since
9am
mm
Dir  Spd
km/h
Gust
km/h
Spd
kts
Gust
kts
17/11:30pm 28.9 32.0 24.2 76 3.3 NNW 15 19 8 10 1007.1 1006.9 0.0
17/11:00pm 29.0 32.9 24.3 76 3.3 NNW 11 17 6 9 1007.5 1007.3 0.0
17/10:30pm 29.1 32.6 24.2 75 3.4 NNW 13 19 7 10 1007.5 1007.3 0.0
17/10:00pm 29.1 32.6 24.2 75 3.4 NNW 13 19 7 10 1007.4 1007.2 0.0
17/09:30pm 29.3 32.9 24.4 75 3.4 NNW 13 20 7 11 1007.2 1007.0 0.0
17/09:00pm 29.4 33.1 24.5 75 3.4 NNW 13 20 7 11 1006.8 1006.6 0.0
17/08:30pm 29.5 32.9 24.1 72 3.8 NNW 13 19 7 10 1006.5 1006.3 0.0
17/08:00pm 29.7 32.9 24.3 73 3.8 N 15 19 8 10 1006.1 1005.9 0.0
17/07:30pm 29.8 33.7 24.2 72 3.9 NNW 11 17 6 9 1005.8 1005.5 0.0
17/07:00pm 29.8 32.8 24.0 71 4.0 NNW 15 22 8 12 1005.1 1004.8 0.0
17/06:30pm 30.2 33.1 24.4 71 4.1 NNW 17 26 9 14 1004.5 1004.2 0.0
17/06:00pm 30.9 33.1 24.3 68 4.6 NNW 20 26 11 14 1004.1 1003.8 0.0
17/05:30pm 31.7 34.6 23.8 63 5.5 N 15 20 8 11 1003.9 1003.6 0.0
17/05:00pm 31.9 33.8 23.7 62 5.7 N 20 26 11 14 1003.8 1003.5 0.0
17/04:30pm 32.2 35.0 24.3 63 5.5 N 17 24 9 13 1004.1 1003.8 0.0
17/04:00pm 31.7 33.9 24.0 63 5.4 N 19 26 10 14 1004.3 1004.0 0.0
17/03:30pm 32.3 35.7 24.6 64 5.4 NNW 15 24 8 13 1004.5 1004.2 0.0
17/03:00pm 31.7 34.9 24.3 65 5.2 NNW 15 22 8 12 1004.8 1004.5 0.0
17/02:30pm 31.9 35.2 24.5 65 5.2 NNW 15 22 8 12 1005.0 1004.7 0.0
17/02:00pm 32.1 35.0 23.9 62 5.7 N 15 22 8 12 1005.2 1004.9 0.0
17/01:30pm 33.0 36.2 25.0 63 5.7 N 17 22 9 12 1005.5 1005.2 0.0
17/01:00pm 32.2 34.8 24.0 62 5.7 N 17 24 9 13 1005.7 1005.4 0.0
17/12:30pm 32.4 35.6 24.4 62 5.6 NNW 15 26 8 14 1006.0 1005.7 0.0
17/12:00pm 32.5 36.4 24.8 64 5.4 N 13 22 7 12 1006.2 1006.0 0.0
17/11:30am 32.2 36.1 24.8 65 5.2 NNW 13 19 7 10 1006.4 1006.2 0.0
17/11:00am 31.7 34.9 24.3 65 5.2 NNW 15 22 8 12 1006.6 1006.4 0.0
17/10:30am 31.4 34.3 24.5 67 4.8 N 17 22 9 12 1006.6 1006.4 0.0
17/10:00am 31.1 34.5 24.7 68 4.5 N 15 24 8 13 1006.5 1006.3 0.0
17/09:30am 30.9 34.6 24.5 68 4.5 N 13 19 7 10 1006.6 1006.4 0.0
17/09:00am 30.3 34.2 24.9 73 3.8 N 13 17 7 9 1006.7 1006.5 0.0
17/08:30am 30.0 35.1 25.5 77 3.2 N 9 13 5 7 1006.9 1006.7 0.0
17/08:00am 29.5 34.4 25.3 78 3.0 NNE 9 13 5 7 1006.6 1006.4 0.0
17/07:30am 29.1 34.3 25.1 79 2.8 NNW 7 9 4 5 1006.0 1005.7 0.0
17/07:00am 28.7 33.9 25.1 81 2.5 N 7 11 4 6 1005.7 1005.4 0.0
17/06:30am 28.5 33.7 25.1 82 2.4 NNE 7 9 4 5 1005.5 1005.2 0.0
17/06:00am 28.3 33.4 24.9 82 2.4 NNE 7 9 4 5 1005.0 1004.7 0.0
17/05:30am 28.4 33.6 24.8 81 2.5 N 6 9 3 5 1005.0 1004.7 0.0
17/05:00am 28.5 33.8 24.9 81 2.5 N 6 9 3 5 1004.7 1004.4 0.0
17/04:30am 28.4 32.5 24.6 80 2.7 N 11 15 6 8 1004.2 1003.9 0.0
17/04:00am 28.6 32.8 24.8 80 2.7 N 11 15 6 8 1004.4 1004.1 0.0
17/03:30am 28.6 32.7 24.6 79 2.8 N 11 15 6 8 1004.7 1004.4 0.0
17/03:00am 28.6 32.3 24.6 79 2.8 N 13 19 7 10 1004.2 1003.9 0.0
17/02:30am 28.5 32.1 24.3 78 2.9 NNW 13 17 7 9 1004.3 1004.0 0.0
17/02:00am 28.4 32.4 24.4 79 2.8 NW 11 20 6 11 1004.6 1004.3 0.0
17/01:30am 28.6 32.2 24.4 78 2.9 NW 13 22 7 12 1005.1 1004.8 0.0
17/01:00am 28.6 32.1 24.2 77 3.1 NW 13 20 7 11 1005.6 1005.3 0.0
17/12:30am 28.8 32.5 24.6 78 2.9 NW 13 19 7 10 1005.9 1005.6 0.0
17/12:00am 28.9 32.3 24.7 78 2.9 NNW 15 20 8 11 1006.3 1006.1 0.0
 
Date/Time
CST
Temp
°C
App
Temp
°C
Dew
Point
°C
Rel
Hum
%
Delta-T
°C
Wind Press
QNH
hPa
Press
MSL
hPa
Rain since
9am
mm
Dir  Spd
km/h
Gust
km/h
Spd
kts
Gust
kts
16/11:30pm 29.0 32.9 24.8 78 2.9 NNW 13 17 7 9 1006.8 1006.6 0.0
16/11:00pm 29.0 33.1 24.6 77 3.1 NW 11 17 6 9 1007.4 1007.2 0.0
16/10:30pm 29.1 32.9 24.7 77 3.1 NW 13 20 7 11 1006.9 1006.7 0.0
16/10:00pm 29.1 32.5 24.7 77 3.1 NW 15 20 8 11 1006.6 1006.4 0.0
16/09:30pm 29.2 32.6 24.7 77 3.2 NNW 15 22 8 12 1006.5 1006.3 0.0
16/09:00pm 29.3 32.7 24.6 76 3.3 N 15 20 8 11 1006.8 1006.6 0.0
16/08:30pm 29.4 33.1 24.5 75 3.4 N 13 19 7 10 1006.3 1006.1 0.0
16/08:00pm 29.4 32.6 24.3 74 3.5 NNW 15 20 8 11 1005.9 1005.6 0.0
16/07:30pm 29.7 33.1 24.6 74 3.6 NNW 15 20 8 11 1005.5 1005.2 0.0
16/07:00pm 29.9 33.2 24.5 73 3.8 NNW 15 22 8 12 1004.6 1004.3 0.0
16/06:30pm 30.1 32.6 24.5 72 3.9 NNW 19 24 10 13 1004.6 1004.3 0.0
16/06:00pm 30.3 33.2 24.4 70 4.1 NNW 17 24 9 13 1004.5 1004.2 0.0
16/05:30pm 30.6 33.5 24.5 70 4.3 NW 17 22 9 12 1004.5 1004.2 0.0
16/05:00pm 31.2 33.9 24.1 66 4.9 NW 17 22 9 12 1004.5 1004.2 0.0
16/04:30pm 31.7 35.1 24.6 66 5.0 NW 15 22 8 12 1004.5 1004.2 0.0
16/04:00pm 31.4 33.5 23.8 64 5.3 NNW 19 26 10 14 1004.6 1004.3 0.0

Other Formats:

Comma delimited format used in spreadsheet applications
http://www.bom.gov.au/fwo/IDD60801/IDD60801.95111.axf

JavaScript Object Notation format (JSON) in row-major order
http://www.bom.gov.au/fwo/IDD60801/IDD60801.95111.json